Terminal Aerodrome Forecast
Issued by NWS

Home | Current Version | Previous Version | Text Only | Print | Product List | Glossary On
Versions: 1 2 3 4 5 6 7 8 9 10 11 12 13 14 15 16
024
FTUS43 KLSX 271731
TAFUIN
TAF
KUIN 271731Z 2718/2818 11005KT P6SM SCT040
     FM280100 VRB03KT P6SM SCT100
      TEMPO 2810/2812 5SM BR
     FM281500 30005KT P6SM SCT040=

USA.gov is the U.S. government's official web portal to all federal, state and local government web resources and services.